Terminal Aerodrome Forecast
Issued by NWS

Home | Current Version | Previous Version | Text Only | Print | Product List | Glossary On
Versions: 1 2 3 4 5 6 7 8 9 10 11 12
000
FTUS42 KMLB 292320
TAFSFB
TAF
KSFB 292320Z 3000/3024 08012KT P6SM SKC
     FM300100 07006KT P6SM FEW040
     FM300600 05003KT P6SM VCSH SCT040
     FM301500 09009KT P6SM SCT035
      TEMPO 3015/3017 BKN035=

USA.gov is the U.S. government's official web portal to all federal, state and local government web resources and services.